sensor_id;sensor_type;location;lat;lon;timestamp;temperature;humidity
46416;DHT22;32620;51.704;7.822;2023-07-31T00:01:39;16.00;99.90
46416;DHT22;32620;51.704;7.822;2023-07-31T00:04:05;16.00;99.90
46416;DHT22;32620;51.704;7.822;2023-07-31T00:06:30;15.90;99.90
46416;DHT22;32620;51.704;7.822;2023-07-31T00:08:56;15.90;99.90
46416;DHT22;32620;51.704;7.822;2023-07-31T00:11:22;15.90;99.90
46416;DHT22;32620;51.704;7.822;2023-07-31T00:13:47;15.90;99.90
46416;DHT22;32620;51.704;7.822;2023-07-31T00:16:13;15.80;99.90
46416;DHT22;32620;51.704;7.822;2023-07-31T00:18:38;15.70;99.90
46416;DHT22;32620;51.704;7.822;2023-07-31T00:21:04;15.70;99.90
46416;DHT22;32620;51.704;7.822;2023-07-31T00:23:29;15.70;99.90
46416;DHT22;32620;51.704;7.822;2023-07-31T00:25:55;15.70;99.90
46416;DHT22;32620;51.704;7.822;2023-07-31T00:28:20;15.60;99.90
46416;DHT22;32620;51.704;7.822;2023-07-31T00:30:46;15.50;99.90
46416;DHT22;32620;51.704;7.822;2023-07-31T00:33:11;15.50;99.90
46416;DHT22;32620;51.704;7.822;2023-07-31T00:35:37;15.50;99.90
46416;DHT22;32620;51.704;7.822;2023-07-31T00:38:02;15.40;99.90
46416;DHT22;32620;51.704;7.822;2023-07-31T00:40:28;15.40;99.90
46416;DHT22;32620;51.704;7.822;2023-07-31T00:42:54;15.40;99.90
46416;DHT22;32620;51.704;7.822;2023-07-31T00:45:19;15.40;99.90
46416;DHT22;32620;51.704;7.822;2023-07-31T00:47:45;15.30;99.90
46416;DHT22;32620;51.704;7.822;2023-07-31T00:50:11;15.20;99.90
46416;DHT22;32620;51.704;7.822;2023-07-31T00:52:37;15.20;99.90
46416;DHT22;32620;51.704;7.822;2023-07-31T00:55:03;15.30;99.90
46416;DHT22;32620;51.704;7.822;2023-07-31T00:57:30;15.30;99.90
46416;DHT22;32620;51.704;7.822;2023-07-31T00:59:57;15.30;99.90
46416;DHT22;32620;51.704;7.822;2023-07-31T01:02:22;15.30;99.90
46416;DHT22;32620;51.704;7.822;2023-07-31T01:04:48;15.30;99.90
46416;DHT22;32620;51.704;7.822;2023-07-31T01:07:22;15.30;99.90
46416;DHT22;32620;51.704;7.822;2023-07-31T01:10:02;15.30;99.90
46416;DHT22;32620;51.704;7.822;2023-07-31T01:12:30;15.30;99.90
46416;DHT22;32620;51.704;7.822;2023-07-31T01:15:06;15.30;99.90
46416;DHT22;32620;51.704;7.822;2023-07-31T01:17:36;15.30;99.90
46416;DHT22;32620;51.704;7.822;2023-07-31T01:20:05;15.30;99.90
46416;DHT22;32620;51.704;7.822;2023-07-31T01:25:52;15.30;99.90
46416;DHT22;32620;51.704;7.822;2023-07-31T01:28:23;15.30;99.90
46416;DHT22;32620;51.704;7.822;2023-07-31T01:30:50;15.30;99.90
46416;DHT22;32620;51.704;7.822;2023-07-31T01:33:16;15.30;99.90
46416;DHT22;32620;51.704;7.822;2023-07-31T01:35:44;15.20;99.90
46416;DHT22;32620;51.704;7.822;2023-07-31T01:38:10;15.20;99.90
46416;DHT22;32620;51.704;7.822;2023-07-31T01:40:36;15.20;99.90
46416;DHT22;32620;51.704;7.822;2023-07-31T01:43:01;15.30;99.90
46416;DHT22;32620;51.704;7.822;2023-07-31T01:45:27;15.30;99.90
46416;DHT22;32620;51.704;7.822;2023-07-31T01:47:52;15.40;99.90
46416;DHT22;32620;51.704;7.822;2023-07-31T01:50:18;15.50;99.90
46416;DHT22;32620;51.704;7.822;2023-07-31T01:52:43;15.60;99.90
46416;DHT22;32620;51.704;7.822;2023-07-31T01:55:09;15.60;99.90
46416;DHT22;32620;51.704;7.822;2023-07-31T01:57:36;15.70;99.90
46416;DHT22;32620;51.704;7.822;2023-07-31T02:00:02;15.80;99.90
46416;DHT22;32620;51.704;7.822;2023-07-31T02:02:28;15.90;99.90
46416;DHT22;32620;51.704;7.822;2023-07-31T02:04:54;15.90;99.90
46416;DHT22;32620;51.704;7.822;2023-07-31T02:07:19;16.00;99.90
46416;DHT22;32620;51.704;7.822;2023-07-31T02:09:45;16.00;99.90
46416;DHT22;32620;51.704;7.822;2023-07-31T02:12:12;16.00;99.90
46416;DHT22;32620;51.704;7.822;2023-07-31T02:14:39;16.00;99.90
46416;DHT22;32620;51.704;7.822;2023-07-31T02:17:05;16.10;99.90
46416;DHT22;32620;51.704;7.822;2023-07-31T02:19:31;16.00;99.90
46416;DHT22;32620;51.704;7.822;2023-07-31T02:21:56;16.10;99.90
46416;DHT22;32620;51.704;7.822;2023-07-31T02:24:22;16.10;99.90
46416;DHT22;32620;51.704;7.822;2023-07-31T02:26:47;16.10;99.90
46416;DHT22;32620;51.704;7.822;2023-07-31T02:29:13;16.10;99.90
46416;DHT22;32620;51.704;7.822;2023-07-31T02:31:38;16.10;99.90
46416;DHT22;32620;51.704;7.822;2023-07-31T02:34:04;16.10;99.90
46416;DHT22;32620;51.704;7.822;2023-07-31T02:36:29;16.10;99.90
46416;DHT22;32620;51.704;7.822;2023-07-31T02:38:55;16.10;99.90
46416;DHT22;32620;51.704;7.822;2023-07-31T02:41:20;16.10;99.90
46416;DHT22;32620;51.704;7.822;2023-07-31T02:43:46;16.10;99.90
46416;DHT22;32620;51.704;7.822;2023-07-31T02:46:11;16.10;99.90
46416;DHT22;32620;51.704;7.822;2023-07-31T02:48:37;16.10;99.90
46416;DHT22;32620;51.704;7.822;2023-07-31T02:51:02;16.10;99.90
46416;DHT22;32620;51.704;7.822;2023-07-31T02:53:28;16.10;99.90
46416;DHT22;32620;51.704;7.822;2023-07-31T02:55:54;16.10;99.90
46416;DHT22;32620;51.704;7.822;2023-07-31T02:58:19;16.10;99.90
46416;DHT22;32620;51.704;7.822;2023-07-31T03:00:45;16.00;99.90
46416;DHT22;32620;51.704;7.822;2023-07-31T03:03:10;16.00;99.90
46416;DHT22;32620;51.704;7.822;2023-07-31T03:05:36;16.10;99.90
46416;DHT22;32620;51.704;7.822;2023-07-31T03:08:02;16.00;99.90
46416;DHT22;32620;51.704;7.822;2023-07-31T03:10:27;16.10;99.90
46416;DHT22;32620;51.704;7.822;2023-07-31T03:12:53;16.10;99.90
46416;DHT22;32620;51.704;7.822;2023-07-31T03:15:18;16.00;99.90
46416;DHT22;32620;51.704;7.822;2023-07-31T03:17:44;16.10;99.90
46416;DHT22;32620;51.704;7.822;2023-07-31T03:20:10;16.00;99.90
46416;DHT22;32620;51.704;7.822;2023-07-31T03:22:35;16.00;99.90
46416;DHT22;32620;51.704;7.822;2023-07-31T03:25:02;16.00;99.90
46416;DHT22;32620;51.704;7.822;2023-07-31T03:27:28;16.00;99.90
46416;DHT22;32620;51.704;7.822;2023-07-31T03:29:53;16.10;99.90
46416;DHT22;32620;51.704;7.822;2023-07-31T03:32:19;16.00;99.90
46416;DHT22;32620;51.704;7.822;2023-07-31T03:34:44;16.00;99.90
46416;DHT22;32620;51.704;7.822;2023-07-31T03:37:10;16.00;99.90
46416;DHT22;32620;51.704;7.822;2023-07-31T03:39:35;16.00;99.90
46416;DHT22;32620;51.704;7.822;2023-07-31T03:42:01;16.00;99.90
46416;DHT22;32620;51.704;7.822;2023-07-31T03:44:26;16.00;99.90
46416;DHT22;32620;51.704;7.822;2023-07-31T03:46:52;16.00;99.90
46416;DHT22;32620;51.704;7.822;2023-07-31T03:49:18;16.00;99.90
46416;DHT22;32620;51.704;7.822;2023-07-31T03:51:43;16.00;99.90
46416;DHT22;32620;51.704;7.822;2023-07-31T03:54:09;16.00;99.90
46416;DHT22;32620;51.704;7.822;2023-07-31T03:56:35;16.00;99.90
46416;DHT22;32620;51.704;7.822;2023-07-31T03:59:01;16.00;99.90
46416;DHT22;32620;51.704;7.822;2023-07-31T04:01:26;16.00;99.90
46416;DHT22;32620;51.704;7.822;2023-07-31T04:03:52;16.00;99.90
46416;DHT22;32620;51.704;7.822;2023-07-31T04:06:18;16.00;99.90
46416;DHT22;32620;51.704;7.822;2023-07-31T04:08:44;16.10;99.90
46416;DHT22;32620;51.704;7.822;2023-07-31T04:11:10;16.10;99.90
46416;DHT22;32620;51.704;7.822;2023-07-31T04:13:37;16.10;99.90
46416;DHT22;32620;51.704;7.822;2023-07-31T04:16:02;16.20;99.90
46416;DHT22;32620;51.704;7.822;2023-07-31T04:18:28;16.10;99.90
46416;DHT22;32620;51.704;7.822;2023-07-31T04:20:56;16.10;99.90
46416;DHT22;32620;51.704;7.822;2023-07-31T04:23:23;16.10;99.90
46416;DHT22;32620;51.704;7.822;2023-07-31T04:25:49;16.10;99.90
46416;DHT22;32620;51.704;7.822;2023-07-31T04:28:14;16.10;99.90
46416;DHT22;32620;51.704;7.822;2023-07-31T04:30:40;16.20;99.90
46416;DHT22;32620;51.704;7.822;2023-07-31T04:33:06;16.20;99.90
46416;DHT22;32620;51.704;7.822;2023-07-31T04:35:31;16.20;99.90
46416;DHT22;32620;51.704;7.822;2023-07-31T04:37:57;16.20;99.90
46416;DHT22;32620;51.704;7.822;2023-07-31T04:40:22;16.20;99.90
46416;DHT22;32620;51.704;7.822;2023-07-31T04:42:48;16.20;99.90
46416;DHT22;32620;51.704;7.822;2023-07-31T04:45:14;16.30;99.90
46416;DHT22;32620;51.704;7.822;2023-07-31T04:47:39;16.30;99.90
46416;DHT22;32620;51.704;7.822;2023-07-31T04:50:05;16.30;99.90
46416;DHT22;32620;51.704;7.822;2023-07-31T04:52:31;16.30;99.90
46416;DHT22;32620;51.704;7.822;2023-07-31T04:54:56;16.30;99.90
46416;DHT22;32620;51.704;7.822;2023-07-31T04:57:22;16.30;99.90
46416;DHT22;32620;51.704;7.822;2023-07-31T04:59:47;16.30;99.90
46416;DHT22;32620;51.704;7.822;2023-07-31T05:02:13;16.40;99.90
46416;DHT22;32620;51.704;7.822;2023-07-31T05:04:39;16.40;99.90
46416;DHT22;32620;51.704;7.822;2023-07-31T05:07:04;16.40;99.90
46416;DHT22;32620;51.704;7.822;2023-07-31T05:09:30;16.40;99.90
46416;DHT22;32620;51.704;7.822;2023-07-31T05:11:55;16.50;99.90
46416;DHT22;32620;51.704;7.822;2023-07-31T05:14:21;16.50;99.90
46416;DHT22;32620;51.704;7.822;2023-07-31T05:16:47;16.50;99.90
46416;DHT22;32620;51.704;7.822;2023-07-31T05:19:12;16.60;99.90
46416;DHT22;32620;51.704;7.822;2023-07-31T05:21:38;16.60;99.90
46416;DHT22;32620;51.704;7.822;2023-07-31T05:24:04;16.50;99.90
46416;DHT22;32620;51.704;7.822;2023-07-31T05:26:30;16.60;99.90
46416;DHT22;32620;51.704;7.822;2023-07-31T05:28:56;16.60;99.90
46416;DHT22;32620;51.704;7.822;2023-07-31T05:31:21;16.60;99.90
46416;DHT22;32620;51.704;7.822;2023-07-31T05:33:48;16.70;99.90
46416;DHT22;32620;51.704;7.822;2023-07-31T05:36:15;16.70;99.90
46416;DHT22;32620;51.704;7.822;2023-07-31T05:38:41;16.70;99.90
46416;DHT22;32620;51.704;7.822;2023-07-31T05:41:07;16.70;99.90
46416;DHT22;32620;51.704;7.822;2023-07-31T05:43:33;16.70;99.90
46416;DHT22;32620;51.704;7.822;2023-07-31T05:45:59;16.70;99.90
46416;DHT22;32620;51.704;7.822;2023-07-31T05:48:24;16.70;99.90
46416;DHT22;32620;51.704;7.822;2023-07-31T05:50:50;16.70;99.90
46416;DHT22;32620;51.704;7.822;2023-07-31T05:53:16;16.70;99.90
46416;DHT22;32620;51.704;7.822;2023-07-31T05:55:41;16.70;99.90
46416;DHT22;32620;51.704;7.822;2023-07-31T05:58:07;16.60;99.90
46416;DHT22;32620;51.704;7.822;2023-07-31T06:00:32;16.60;99.90
46416;DHT22;32620;51.704;7.822;2023-07-31T06:02:58;16.60;99.90
46416;DHT22;32620;51.704;7.822;2023-07-31T06:05:23;16.70;99.90
46416;DHT22;32620;51.704;7.822;2023-07-31T06:07:49;16.80;99.90
46416;DHT22;32620;51.704;7.822;2023-07-31T06:10:14;16.80;99.90
46416;DHT22;32620;51.704;7.822;2023-07-31T06:12:40;16.80;99.90
46416;DHT22;32620;51.704;7.822;2023-07-31T06:15:06;16.80;99.90
46416;DHT22;32620;51.704;7.822;2023-07-31T06:17:32;16.90;99.90
46416;DHT22;32620;51.704;7.822;2023-07-31T06:19:57;16.90;99.90
46416;DHT22;32620;51.704;7.822;2023-07-31T06:22:23;16.90;99.90
46416;DHT22;32620;51.704;7.822;2023-07-31T06:24:49;16.80;99.90
46416;DHT22;32620;51.704;7.822;2023-07-31T06:27:14;16.70;99.90
46416;DHT22;32620;51.704;7.822;2023-07-31T06:29:40;16.60;99.90
46416;DHT22;32620;51.704;7.822;2023-07-31T06:32:06;16.60;99.90
46416;DHT22;32620;51.704;7.822;2023-07-31T06:34:32;16.50;99.90
46416;DHT22;32620;51.704;7.822;2023-07-31T06:36:58;16.50;99.90
46416;DHT22;32620;51.704;7.822;2023-07-31T06:39:23;16.50;99.90
46416;DHT22;32620;51.704;7.822;2023-07-31T06:41:49;16.50;99.90
46416;DHT22;32620;51.704;7.822;2023-07-31T06:44:14;16.50;99.90
46416;DHT22;32620;51.704;7.822;2023-07-31T06:46:40;16.50;99.90
46416;DHT22;32620;51.704;7.822;2023-07-31T06:49:05;16.50;99.90
46416;DHT22;32620;51.704;7.822;2023-07-31T06:51:31;16.50;99.90
46416;DHT22;32620;51.704;7.822;2023-07-31T06:53:57;16.50;99.90
46416;DHT22;32620;51.704;7.822;2023-07-31T06:56:23;16.50;99.90
46416;DHT22;32620;51.704;7.822;2023-07-31T06:58:48;16.50;99.90
46416;DHT22;32620;51.704;7.822;2023-07-31T07:01:14;16.60;99.90
46416;DHT22;32620;51.704;7.822;2023-07-31T07:03:40;16.70;99.90
46416;DHT22;32620;51.704;7.822;2023-07-31T07:06:05;16.60;99.90
46416;DHT22;32620;51.704;7.822;2023-07-31T07:08:31;16.60;99.90
46416;DHT22;32620;51.704;7.822;2023-07-31T07:10:56;16.70;99.90
46416;DHT22;32620;51.704;7.822;2023-07-31T07:13:22;16.70;99.90
46416;DHT22;32620;51.704;7.822;2023-07-31T07:15:48;16.60;99.90
46416;DHT22;32620;51.704;7.822;2023-07-31T07:18:14;16.60;99.90
46416;DHT22;32620;51.704;7.822;2023-07-31T07:20:41;16.50;99.90
46416;DHT22;32620;51.704;7.822;2023-07-31T07:23:06;16.50;99.90
46416;DHT22;32620;51.704;7.822;2023-07-31T07:25:32;16.50;99.90
46416;DHT22;32620;51.704;7.822;2023-07-31T07:27:57;16.50;99.90
46416;DHT22;32620;51.704;7.822;2023-07-31T07:30:24;16.60;99.90
46416;DHT22;32620;51.704;7.822;2023-07-31T07:32:50;16.60;99.90
46416;DHT22;32620;51.704;7.822;2023-07-31T07:35:16;16.70;99.90
46416;DHT22;32620;51.704;7.822;2023-07-31T07:37:41;16.70;99.90
46416;DHT22;32620;51.704;7.822;2023-07-31T07:40:07;16.80;99.90
46416;DHT22;32620;51.704;7.822;2023-07-31T07:42:33;16.80;99.90
46416;DHT22;32620;51.704;7.822;2023-07-31T07:44:58;16.80;99.90
46416;DHT22;32620;51.704;7.822;2023-07-31T07:47:24;16.80;99.90
46416;DHT22;32620;51.704;7.822;2023-07-31T07:49:50;16.80;99.90
46416;DHT22;32620;51.704;7.822;2023-07-31T07:52:15;16.70;99.90
46416;DHT22;32620;51.704;7.822;2023-07-31T07:54:41;16.70;99.90
46416;DHT22;32620;51.704;7.822;2023-07-31T07:57:06;16.80;99.90
46416;DHT22;32620;51.704;7.822;2023-07-31T07:59:32;16.80;99.90
46416;DHT22;32620;51.704;7.822;2023-07-31T08:01:57;16.80;99.90
46416;DHT22;32620;51.704;7.822;2023-07-31T08:04:23;16.80;99.90
46416;DHT22;32620;51.704;7.822;2023-07-31T08:06:48;16.80;99.90
46416;DHT22;32620;51.704;7.822;2023-07-31T08:09:14;16.90;99.90
46416;DHT22;32620;51.704;7.822;2023-07-31T08:11:39;16.90;99.90
46416;DHT22;32620;51.704;7.822;2023-07-31T08:14:05;16.90;99.90
46416;DHT22;32620;51.704;7.822;2023-07-31T08:16:31;16.90;99.90
46416;DHT22;32620;51.704;7.822;2023-07-31T08:18:56;16.90;99.90
46416;DHT22;32620;51.704;7.822;2023-07-31T08:21:23;16.90;99.90
46416;DHT22;32620;51.704;7.822;2023-07-31T08:23:48;16.90;99.90
46416;DHT22;32620;51.704;7.822;2023-07-31T08:26:18;16.90;99.90
46416;DHT22;32620;51.704;7.822;2023-07-31T08:28:44;16.90;99.90
46416;DHT22;32620;51.704;7.822;2023-07-31T08:31:09;16.90;99.90
46416;DHT22;32620;51.704;7.822;2023-07-31T08:33:36;16.80;99.90
46416;DHT22;32620;51.704;7.822;2023-07-31T08:36:02;16.70;99.90
46416;DHT22;32620;51.704;7.822;2023-07-31T08:38:27;16.80;99.90
46416;DHT22;32620;51.704;7.822;2023-07-31T08:40:56;16.90;99.90
46416;DHT22;32620;51.704;7.822;2023-07-31T08:43:24;16.90;99.90
46416;DHT22;32620;51.704;7.822;2023-07-31T08:45:50;16.90;99.90
46416;DHT22;32620;51.704;7.822;2023-07-31T08:48:17;16.90;99.90
46416;DHT22;32620;51.704;7.822;2023-07-31T08:50:43;16.90;99.90
46416;DHT22;32620;51.704;7.822;2023-07-31T08:53:09;16.90;99.90
46416;DHT22;32620;51.704;7.822;2023-07-31T08:55:36;17.10;99.90
46416;DHT22;32620;51.704;7.822;2023-07-31T08:58:04;17.10;99.90
46416;DHT22;32620;51.704;7.822;2023-07-31T09:00:31;17.20;99.90
46416;DHT22;32620;51.704;7.822;2023-07-31T09:03:01;17.20;99.90
46416;DHT22;32620;51.704;7.822;2023-07-31T09:05:29;17.20;99.90
46416;DHT22;32620;51.704;7.822;2023-07-31T09:07:56;17.20;99.90
46416;DHT22;32620;51.704;7.822;2023-07-31T09:10:22;17.20;99.90
46416;DHT22;32620;51.704;7.822;2023-07-31T09:12:49;17.30;99.90
46416;DHT22;32620;51.704;7.822;2023-07-31T09:15:16;17.40;99.90
46416;DHT22;32620;51.704;7.822;2023-07-31T09:17:41;17.30;99.90
46416;DHT22;32620;51.704;7.822;2023-07-31T09:20:22;17.20;99.90
46416;DHT22;32620;51.704;7.822;2023-07-31T09:22:48;17.10;99.90
46416;DHT22;32620;51.704;7.822;2023-07-31T09:28:08;16.90;99.90
46416;DHT22;32620;51.704;7.822;2023-07-31T09:30:50;16.90;99.90
46416;DHT22;32620;51.704;7.822;2023-07-31T09:33:17;16.90;99.90
46416;DHT22;32620;51.704;7.822;2023-07-31T09:35:42;16.90;99.90
46416;DHT22;32620;51.704;7.822;2023-07-31T09:38:10;16.90;99.90
46416;DHT22;32620;51.704;7.822;2023-07-31T09:40:39;16.90;99.90
46416;DHT22;32620;51.704;7.822;2023-07-31T09:43:07;17.00;99.90
46416;DHT22;32620;51.704;7.822;2023-07-31T09:45:36;16.90;99.90
46416;DHT22;32620;51.704;7.822;2023-07-31T09:48:02;16.90;99.90
46416;DHT22;32620;51.704;7.822;2023-07-31T09:50:28;16.90;99.90
46416;DHT22;32620;51.704;7.822;2023-07-31T09:52:54;16.90;99.90
46416;DHT22;32620;51.704;7.822;2023-07-31T09:55:20;16.90;99.90
46416;DHT22;32620;51.704;7.822;2023-07-31T09:57:47;16.90;99.90
46416;DHT22;32620;51.704;7.822;2023-07-31T10:00:15;16.80;99.90
46416;DHT22;32620;51.704;7.822;2023-07-31T10:02:45;16.90;99.90
46416;DHT22;32620;51.704;7.822;2023-07-31T10:05:14;16.90;99.90
46416;DHT22;32620;51.704;7.822;2023-07-31T10:07:44;16.80;99.90
46416;DHT22;32620;51.704;7.822;2023-07-31T10:10:11;17.00;99.90
46416;DHT22;32620;51.704;7.822;2023-07-31T10:12:37;17.10;99.90
46416;DHT22;32620;51.704;7.822;2023-07-31T10:15:03;17.20;99.90
46416;DHT22;32620;51.704;7.822;2023-07-31T10:17:30;17.10;99.90
46416;DHT22;32620;51.704;7.822;2023-07-31T10:19:58;17.10;99.90
46416;DHT22;32620;51.704;7.822;2023-07-31T10:22:25;17.10;99.90
46416;DHT22;32620;51.704;7.822;2023-07-31T10:24:52;17.30;99.90
46416;DHT22;32620;51.704;7.822;2023-07-31T10:27:19;17.20;99.90
46416;DHT22;32620;51.704;7.822;2023-07-31T10:29:47;17.30;99.90
46416;DHT22;32620;51.704;7.822;2023-07-31T10:32:14;17.20;99.90
46416;DHT22;32620;51.704;7.822;2023-07-31T10:34:41;17.30;99.90
46416;DHT22;32620;51.704;7.822;2023-07-31T10:37:27;17.30;99.90
46416;DHT22;32620;51.704;7.822;2023-07-31T10:40:16;17.40;99.90
46416;DHT22;32620;51.704;7.822;2023-07-31T10:42:47;17.20;99.90
46416;DHT22;32620;51.704;7.822;2023-07-31T10:45:13;17.10;99.90
46416;DHT22;32620;51.704;7.822;2023-07-31T10:47:44;17.00;99.90
46416;DHT22;32620;51.704;7.822;2023-07-31T10:50:20;17.00;99.90
46416;DHT22;32620;51.704;7.822;2023-07-31T10:52:48;17.00;99.90
46416;DHT22;32620;51.704;7.822;2023-07-31T10:55:16;16.90;99.90
46416;DHT22;32620;51.704;7.822;2023-07-31T10:57:47;17.00;99.90
46416;DHT22;32620;51.704;7.822;2023-07-31T11:00:29;17.00;99.90
46416;DHT22;32620;51.704;7.822;2023-07-31T11:05:50;17.00;99.90
46416;DHT22;32620;51.704;7.822;2023-07-31T11:08:19;17.00;99.90
46416;DHT22;32620;51.704;7.822;2023-07-31T11:10:47;17.20;99.90
46416;DHT22;32620;51.704;7.822;2023-07-31T11:13:13;17.20;99.90
46416;DHT22;32620;51.704;7.822;2023-07-31T11:15:39;17.20;99.90
46416;DHT22;32620;51.704;7.822;2023-07-31T11:18:05;17.30;99.90
46416;DHT22;32620;51.704;7.822;2023-07-31T11:20:34;17.30;99.90
46416;DHT22;32620;51.704;7.822;2023-07-31T11:23:03;17.20;99.90
46416;DHT22;32620;51.704;7.822;2023-07-31T11:25:31;17.30;99.90
46416;DHT22;32620;51.704;7.822;2023-07-31T11:27:57;17.30;99.90
46416;DHT22;32620;51.704;7.822;2023-07-31T11:30:23;17.20;99.90
46416;DHT22;32620;51.704;7.822;2023-07-31T11:32:49;17.30;99.90
46416;DHT22;32620;51.704;7.822;2023-07-31T11:35:16;17.30;99.90
46416;DHT22;32620;51.704;7.822;2023-07-31T11:37:43;17.30;99.90
46416;DHT22;32620;51.704;7.822;2023-07-31T11:40:09;17.30;99.90
46416;DHT22;32620;51.704;7.822;2023-07-31T11:42:35;17.30;99.90
46416;DHT22;32620;51.704;7.822;2023-07-31T11:45:03;17.20;99.90
46416;DHT22;32620;51.704;7.822;2023-07-31T11:47:30;17.20;99.90
46416;DHT22;32620;51.704;7.822;2023-07-31T11:49:56;17.20;99.90
46416;DHT22;32620;51.704;7.822;2023-07-31T11:52:21;17.20;99.90
46416;DHT22;32620;51.704;7.822;2023-07-31T11:54:49;17.20;99.90
46416;DHT22;32620;51.704;7.822;2023-07-31T11:57:15;17.20;99.90
46416;DHT22;32620;51.704;7.822;2023-07-31T11:59:42;17.20;99.90
46416;DHT22;32620;51.704;7.822;2023-07-31T12:02:08;17.20;99.90
46416;DHT22;32620;51.704;7.822;2023-07-31T12:04:34;17.20;99.90
46416;DHT22;32620;51.704;7.822;2023-07-31T12:07:01;17.30;99.90
46416;DHT22;32620;51.704;7.822;2023-07-31T12:09:26;17.30;99.90
46416;DHT22;32620;51.704;7.822;2023-07-31T12:11:52;17.40;99.90
46416;DHT22;32620;51.704;7.822;2023-07-31T12:14:21;17.40;99.90
46416;DHT22;32620;51.704;7.822;2023-07-31T12:16:54;17.60;99.90
46416;DHT22;32620;51.704;7.822;2023-07-31T12:19:20;17.70;99.90
46416;DHT22;32620;51.704;7.822;2023-07-31T12:21:45;17.90;99.90
46416;DHT22;32620;51.704;7.822;2023-07-31T12:24:11;18.00;99.90
46416;DHT22;32620;51.704;7.822;2023-07-31T12:26:36;18.10;99.90
46416;DHT22;32620;51.704;7.822;2023-07-31T12:29:07;18.20;99.90
46416;DHT22;32620;51.704;7.822;2023-07-31T12:31:34;18.30;99.90
46416;DHT22;32620;51.704;7.822;2023-07-31T12:33:59;18.40;99.90
46416;DHT22;32620;51.704;7.822;2023-07-31T12:36:25;18.30;99.90
46416;DHT22;32620;51.704;7.822;2023-07-31T12:38:51;18.60;99.90
46416;DHT22;32620;51.704;7.822;2023-07-31T12:41:17;18.80;99.90
46416;DHT22;32620;51.704;7.822;2023-07-31T12:43:44;18.90;99.90
46416;DHT22;32620;51.704;7.822;2023-07-31T12:46:10;18.90;99.90
46416;DHT22;32620;51.704;7.822;2023-07-31T12:48:37;18.80;99.90
46416;DHT22;32620;51.704;7.822;2023-07-31T12:51:03;18.90;99.90
46416;DHT22;32620;51.704;7.822;2023-07-31T12:53:29;18.80;99.90
46416;DHT22;32620;51.704;7.822;2023-07-31T12:55:55;18.80;99.90
46416;DHT22;32620;51.704;7.822;2023-07-31T12:58:21;18.70;99.90
46416;DHT22;32620;51.704;7.822;2023-07-31T13:00:46;18.60;99.90
46416;DHT22;32620;51.704;7.822;2023-07-31T13:03:12;18.50;99.90
46416;DHT22;32620;51.704;7.822;2023-07-31T13:05:38;18.40;99.90
46416;DHT22;32620;51.704;7.822;2023-07-31T13:08:03;18.50;99.90
46416;DHT22;32620;51.704;7.822;2023-07-31T13:10:29;18.60;99.90
46416;DHT22;32620;51.704;7.822;2023-07-31T13:12:55;18.40;99.90
46416;DHT22;32620;51.704;7.822;2023-07-31T13:15:21;18.40;99.90
46416;DHT22;32620;51.704;7.822;2023-07-31T13:17:46;18.30;99.90
46416;DHT22;32620;51.704;7.822;2023-07-31T13:20:12;18.20;99.90
46416;DHT22;32620;51.704;7.822;2023-07-31T13:22:38;18.20;99.90
46416;DHT22;32620;51.704;7.822;2023-07-31T13:25:04;18.20;99.90
46416;DHT22;32620;51.704;7.822;2023-07-31T13:27:30;18.10;99.90
46416;DHT22;32620;51.704;7.822;2023-07-31T13:29:56;18.20;99.90
46416;DHT22;32620;51.704;7.822;2023-07-31T13:32:21;18.20;99.90
46416;DHT22;32620;51.704;7.822;2023-07-31T13:34:47;18.30;99.90
46416;DHT22;32620;51.704;7.822;2023-07-31T13:37:14;18.40;99.90
46416;DHT22;32620;51.704;7.822;2023-07-31T13:39:40;18.30;99.90
46416;DHT22;32620;51.704;7.822;2023-07-31T13:42:07;18.40;99.90
46416;DHT22;32620;51.704;7.822;2023-07-31T13:44:35;18.30;99.90
46416;DHT22;32620;51.704;7.822;2023-07-31T13:47:00;18.40;99.90
46416;DHT22;32620;51.704;7.822;2023-07-31T13:49:27;18.50;99.90
46416;DHT22;32620;51.704;7.822;2023-07-31T13:51:52;18.70;99.90
46416;DHT22;32620;51.704;7.822;2023-07-31T13:54:18;18.70;99.90
46416;DHT22;32620;51.704;7.822;2023-07-31T13:56:43;18.80;99.90
46416;DHT22;32620;51.704;7.822;2023-07-31T13:59:09;18.80;99.90
46416;DHT22;32620;51.704;7.822;2023-07-31T14:01:35;18.80;99.90
46416;DHT22;32620;51.704;7.822;2023-07-31T14:04:00;18.80;99.90
46416;DHT22;32620;51.704;7.822;2023-07-31T14:06:26;18.80;99.90
46416;DHT22;32620;51.704;7.822;2023-07-31T14:08:52;18.80;99.90
46416;DHT22;32620;51.704;7.822;2023-07-31T14:11:17;18.80;99.90
46416;DHT22;32620;51.704;7.822;2023-07-31T14:13:43;18.80;99.90
46416;DHT22;32620;51.704;7.822;2023-07-31T14:16:08;18.70;99.90
46416;DHT22;32620;51.704;7.822;2023-07-31T14:18:34;18.50;99.90
46416;DHT22;32620;51.704;7.822;2023-07-31T14:20:59;18.50;99.90
46416;DHT22;32620;51.704;7.822;2023-07-31T14:23:25;18.50;99.90
46416;DHT22;32620;51.704;7.822;2023-07-31T14:25:50;18.50;99.90
46416;DHT22;32620;51.704;7.822;2023-07-31T14:28:16;18.50;99.90
46416;DHT22;32620;51.704;7.822;2023-07-31T14:30:41;18.50;99.90
46416;DHT22;32620;51.704;7.822;2023-07-31T14:33:07;18.50;99.90
46416;DHT22;32620;51.704;7.822;2023-07-31T14:35:34;18.50;99.90
46416;DHT22;32620;51.704;7.822;2023-07-31T14:38:00;18.70;99.90
46416;DHT22;32620;51.704;7.822;2023-07-31T14:40:25;18.70;99.90
46416;DHT22;32620;51.704;7.822;2023-07-31T14:42:51;18.80;99.90
46416;DHT22;32620;51.704;7.822;2023-07-31T14:45:17;18.90;99.90
46416;DHT22;32620;51.704;7.822;2023-07-31T14:47:43;18.90;99.90
46416;DHT22;32620;51.704;7.822;2023-07-31T14:50:09;19.20;99.90
46416;DHT22;32620;51.704;7.822;2023-07-31T14:52:34;19.40;99.90
46416;DHT22;32620;51.704;7.822;2023-07-31T14:55:00;19.70;99.90
46416;DHT22;32620;51.704;7.822;2023-07-31T14:57:25;19.70;99.90
46416;DHT22;32620;51.704;7.822;2023-07-31T14:59:51;19.50;99.90
46416;DHT22;32620;51.704;7.822;2023-07-31T15:02:16;19.40;99.90
46416;DHT22;32620;51.704;7.822;2023-07-31T15:04:42;19.30;99.90
46416;DHT22;32620;51.704;7.822;2023-07-31T15:07:08;19.20;99.90
46416;DHT22;32620;51.704;7.822;2023-07-31T15:09:33;19.30;99.90
46416;DHT22;32620;51.704;7.822;2023-07-31T15:11:59;19.30;99.90
46416;DHT22;32620;51.704;7.822;2023-07-31T15:14:25;19.20;99.90
46416;DHT22;32620;51.704;7.822;2023-07-31T15:16:52;19.20;99.90
46416;DHT22;32620;51.704;7.822;2023-07-31T15:19:18;19.20;99.90
46416;DHT22;32620;51.704;7.822;2023-07-31T15:21:43;19.10;99.90
46416;DHT22;32620;51.704;7.822;2023-07-31T15:24:09;19.10;99.90
46416;DHT22;32620;51.704;7.822;2023-07-31T15:26:34;19.20;99.90
46416;DHT22;32620;51.704;7.822;2023-07-31T15:29:03;19.10;99.90
46416;DHT22;32620;51.704;7.822;2023-07-31T15:31:31;19.10;99.90
46416;DHT22;32620;51.704;7.822;2023-07-31T15:33:56;19.10;99.90